Погода Прожекторна неделю

Могилёвская область, Белоруссия

25 - 31 мая
  • 25мая
    Сегодня
    +11°
    +25°
    Ясно и безоблачно
    ВремяПогодаТемператураВлажностьДавлениеВетер, м/сВероятность осадков
    00:00Ясно и безоблачно+16°C55 %759 мм1.1 м/с2 %
    03:00Ясно и безоблачно+14°C58 %759 мм0.9 м/с2 %
    06:00Ясно и безоблачно+13°C64 %759 мм1.1 м/с2 %
    09:00Ясно и безоблачно+19°C53 %759 мм1.7 м/с2 %
    12:00Ясно и безоблачно+23°C37 %759 мм2.4 м/с2 %
    15:00Ясно и безоблачно+25°C33 %758 мм2.3 м/с2 %
    18:00Ясно и безоблачно+24°C32 %757 мм2.1 м/с2 %
    21:00Ясно и безоблачно+19°C58 %757 мм0.7 м/с2 %
  • 26мая
    Воскресенье
    +12°
    +25°
    Практически безоблачно
    ВремяПогодаТемператураВлажностьДавлениеВетер, м/сВероятность осадков
    00:00Ясно и безоблачно+15°C73 %757 мм0.6 м/с2 %
    03:00Облачно с прояснениями+13°C84 %757 мм0.2 м/с2 %
    06:00Облачно с прояснениями+12°C78 %757 мм0.3 м/с2 %
    09:00Облачно с прояснениями+19°C55 %758 мм0.5 м/с2 %
    12:00Облачно с прояснениями+23°C33 %758 мм1.7 м/с2 %
    15:00Практически безоблачно+24°C32 %757 мм1.5 м/с2 %
    18:00Ясно и безоблачно+25°C36 %756 мм1.7 м/с2 %
    21:00Практически безоблачно+20°C48 %756 мм0.1 м/с2 %
  • 27мая
    Понедельник
    +15°
    +27°
    Ясно и безоблачно
    ВремяПогодаТемператураВлажностьДавлениеВетер, м/сВероятность осадков
    00:00Ясно и безоблачно+16°C76 %756 мм0.2 м/с2 %
    03:00Практически безоблачно+13°C81 %756 мм0.2 м/с2 %
    06:00Ясно и безоблачно+14°C79 %757 мм0.1 м/с2 %
    09:00Ясно и безоблачно+21°C57 %757 мм0.7 м/с2 %
    12:00Ясно и безоблачно+25°C37 %757 мм1.6 м/с3 %
    15:00Ясно и безоблачно+26°C38 %756 мм1.7 м/с2 %
    18:00Ясно и безоблачно+26°C41 %755 мм1.7 м/с13 %
    21:00Ясно и безоблачно+21°C64 %755 мм0.6 м/с3 %
  • 28мая
    Вторник
    +16°
    +28°
    Практически безоблачно
    ВремяПогодаТемператураВлажностьДавлениеВетер, м/сВероятность осадков
    00:00Ясно и безоблачно+18°C68 %755 мм0.7 м/с2 %
    03:00Ясно и безоблачно+16°C84 %755 мм0.1 м/с2 %
    06:00Ясно и безоблачно+16°C83 %755 мм0.5 м/с2 %
    09:00Ясно и безоблачно+22°C64 %755 мм1.0 м/с2 %
    12:00Ясно и безоблачно+26°C43 %754 мм2.2 м/с6 %
    15:00Практически безоблачно+27°C32 %754 мм1.9 м/с14 %
    18:00Ясно и безоблачно+27°C32 %752 мм1.7 м/с23 %
    21:00Практически безоблачно+22°C49 %752 мм0.8 м/с4 %
  • 29мая
    Среда
    +15°
    +28°
    Ясно и безоблачно
    ВремяПогодаТемператураВлажностьДавлениеВетер, м/сВероятность осадков
    00:00Ясно и безоблачно+19°C65 %752 мм0.8 м/с2 %
    03:00Ясно и безоблачно+18°C73 %752 мм0.6 м/с2 %
    06:00Практически безоблачно+17°C70 %751 мм0.8 м/с2 %
    09:00Небольшая облачность+22°C58 %751 мм1.3 м/с2 %
    12:00Ясно и безоблачно+26°C39 %751 мм2.3 м/с13 %
    15:00Ясно и безоблачно+25°C32 %750 мм1.6 м/с29 %
    18:00Практически безоблачно+26°C31 %749 мм1.4 м/с14 %
    21:00Небольшая облачность+21°C53 %749 мм0.9 м/с8 %
Мы используем cookies
Соглашаюсь